Tiempo atmosférico en la estación meteorológica de San Sebastián De La Gomera, Santa Cruz de Tenerife (15 m.)



Fecha
DESCASC
Temp. máxima en grados centígrados (hora)
DESCASC
Temp. mínima en grados centígrados (hora)
DESCASC
Temp. media en grados centígrados
DESCASC
Racha de viento máxima en m/sg (hora)
DESCASC
Velocidad máxima media en intervalos de 10 minutos(hora)
DESCASC
Precipitaciones diarias en mm
DESCASC
Precipitaciones de 00:00 a 06:00 en mm
DESCASC
Precipitaciones de 06:00 a 12:00 en mm
DESCASC
Precipitaciones de 12:00 a 18:00 en mm
DESCASC
Precipitaciones de 18:00 a 24:00 en mm
DESCASC
20-10-2019 26.4 (12:40) 20.7 (19:00) 23.6 11.67 (17:20) 6.11 (17:30) 0.2 0 0 0 0.2
19-10-2019 26.2 (16:40) 21 (05:10) 23.6 13.33 (16:20) 5.28 (20:20) 0 0 0 0 0
18-10-2019 26.1 (13:30) 20.5 (08:00) 23.3 10.28 (16:10) 5 (15:40) 0 0 0 0 0
17-10-2019 26.6 (14:40) 21.2 (00:00) 23.9 11.39 (11:40) 5 (10:40) 0 0 0 0 0
16-10-2019 24.5 (14:30) 20.7 (00:00) 22.6 8.89 (10:30) 4.72 (13:20) 0 0 0 0 0
15-10-2019 26.1 (14:20) 21.1 (00:00) 23.6 11.67 (02:00) 5.28 (02:00) 0 0 0 0 0
14-10-2019 24.9 (15:40) 20.4 (00:00) 22.6 13.33 (14:50) 5.83 (14:40) 0.1 0.1 0 0 0
13-10-2019 26.3 (13:40) 19.5 (00:00) 22.9 7.5 (19:50) 4.17 (22:50) 0 0 0 0 0
12-10-2019 26.2 (12:10) 21.6 (00:00) 23.9 9.17 (12:40) 4.72 (16:30) 0 0 0 0 0
10-10-2019 27.2 (16:10) 22.3 (00:00) 24.8 11.11 (11:50) 4.44 (14:30) 0 0 0 0 0
09-10-2019 25.9 (13:40) 21.9 (00:00) 23.9 13.89 (11:50) 6.67 (14:30) 0 0 0 0 0
08-10-2019 26.1 (15:10) 20.4 (00:00) 23.3 13.61 (08:40) 6.94 (08:40) 0 0 0 0 0
07-10-2019 25.3 (10:20) 22.2 (00:00) 23.8 13.33 (18:40) 7.22 (18:20) 0 0 0 0 0
06-10-2019 27.5 (14:50) 22.4 (00:00) 24.9 16.67 (03:10) 7.22 (02:40) 0 0 0 0 0
05-10-2019 26.6 (12:20) 22.1 (00:30) 24.4 18.61 (12:40) 7.5 (20:20) 0 0 0 0 0
04-10-2019 29.8 (15:40) 20.6 (00:00) 25.2 16.94 (06:40) 7.78 (11:00) 0 0 0 0 0
03-10-2019 26.4 (13:50) 20.9 (00:00) 23.6 6.11 (15:00) 4.72 (15:00) 0 0 0 0 0
02-10-2019 28.8 (17:20) 21.7 (00:00) 25.3 6.67 (16:30) 4.72 (12:50) 0 0 0 0 0
01-10-2019 29.1 (13:40) 21.3 (00:00) 25.2 8.06 (12:10) 4.72 (14:00) 0 0 0 0 0
30-09-2019 29 (16:30) 21.6 (00:00) 25.3 11.39 (17:50) 6.67 (16:10) 0 0 0 0 0
29-09-2019 28.1 (17:00) 22.1 (00:00) 25.1 10.83 (07:00) 5 (00:50) 0 0 0 0 0
28-09-2019 26.8 (16:20) 22.6 (00:00) 24.7 14.17 (03:00) 6.67 (03:10) 0 0 0 0 0
27-09-2019 27 (13:40) 22.7 (00:00) 24.9 14.17 (17:10) 6.67 (17:30) 0 0 0 0 0
26-09-2019 27.2 (13:20) 22.8 (00:00) 25 14.44 (21:10) 5.83 (12:20) 0 0 0 0 0
25-09-2019 26.3 (13:50) 22.5 (00:00) 24.4 16.39 (17:30) 6.11 (15:00) 0 0 0 0 0
24-09-2019 26.6 (14:00) 22.5 (00:00) 24.6 13.89 (17:50) 6.11 (17:40) 0 0 0 0 0
23-09-2019 26.9 (12:10) 23 (00:00) 24.9 12.5 (12:10) 5.83 (00:50) 0 0 0 0 0
22-09-2019 27.6 (12:00) 21.9 (00:00) 24.8 10.28 (22:00) 5.83 (13:40) 0 0 0 0 0

Gráficas

Temp. máximas Temp. mínimas Temp. medias Precipitaciones Rachas de viento máximas Velocidades máximas media en intervalos de 10 minutos

Datos horarios

Fecha y hora oficial Temperatura (ºC) Velocidad del viento (km/h) Dirección del viento Racha (km/h) Dirección de racha Precipitación (mm) Presión (hPa) Tendencia (hPa) Humedad (%)
2019-10-21 23:00:00 21 16 Norte 41 Noroeste 0 1017.7 0.9 68
2019-10-21 22:00:00 21.1 14 Norte 39 Norte 0 1017.7 1.4 66
2019-10-21 21:00:00 21.4 12 Noroeste 35 Noroeste 0 1017.2 1.2 71
2019-10-21 20:00:00 21.5 10 Noroeste 36 Norte 0 1016.8 0.6 68
2019-10-21 19:00:00 21.7 14 Norte 41 Noroeste 0 1016.3 0 70
2019-10-21 18:00:00 22.3 15 Noroeste 44 Noroeste 0 1016 -0.6 69
2019-10-21 17:00:00 23.4 12 Noroeste 40 Nordeste 0 1016.2 -0.8 66
2019-10-21 16:00:00 23.7 10 Norte 46 Noroeste 0 1016.3 -1.2 63
2019-10-21 15:00:00 23.5 12 Noroeste 45 Norte 0 1016.6 -0.9 69
2019-10-21 14:00:00 23.9 13 Norte 39 Noroeste 0 1017 -0.3 65
2019-10-21 13:00:00 23.2 14 Noroeste 42 Norte 0 1017.5 0.9 64
2019-10-21 12:00:00 23.5 12 Noroeste 42 Norte 0 1017.5 1.4 62
2019-10-21 11:00:00 23.1 10 Norte 43 Norte 0 1017.3 1.8 64
2019-10-21 10:00:00 22 16 Noroeste 37 Oeste 0 1016.6 1.5 69
2019-10-21 09:00:00 21.5 13 Norte 34 Norte 0 1016.1 1.4 73
2019-10-21 08:00:00 20.9 14 Norte 36 Noroeste 0 1015.5 1.3 75
2019-10-21 07:00:00 20.8 12 Noroeste 39 Noroeste 0 1015.1 0.9 78
2019-10-21 06:00:00 21.1 19 Norte 39 Norte 0 1014.7 0.3 75
2019-10-21 05:00:00 21.2 20 Noroeste 39 Norte 0 1014.2 -0.8 73
2019-10-21 04:00:00 21.1 22 Noroeste 40 Noroeste 0 1014.2 -1 76
2019-10-21 03:00:00 21.4 15 Noroeste 35 Noroeste 0 1014.4 -1 75
2019-10-21 02:00:00 21.2 15 Noroeste 37 Noroeste 0 1015 -0.5 75
2019-10-21 01:00:00 21.1 15 Noroeste 35 Noroeste 0 1015.2 0.1 77
2019-10-21 00:00:00 21 13 Noroeste 27 Noroeste 0 1015.4 0.9 81
2019-10-20 23:00:00 20.8 14 Noroeste 33 Norte 0 1015.5 1.5 84
2019-10-20 22:00:00 21.1 12 Noroeste 38 Noroeste 0 1015.1 0.9 88
2019-10-20 21:00:00 21.5 15 Noroeste 40 Norte 0 1014.5 0.2 84
2019-10-20 20:00:00 21.2 15 Noroeste 31 Noroeste 0 1014 0 89
2019-10-20 19:00:00 20.7 16 Noroeste 41 Norte 0.2 1014.2 0.2 92
2019-10-20 18:00:00 21.3 17 Norte 42 Norte 0 1014.3 0.2 94
2019-10-20 17:00:00 21.9 16 Norte 35 Nordeste 0 1014 -0.5 93
2019-10-20 16:00:00 23.3 9 Norte 26 Norte 0 1014 -0.8 87
2019-10-20 15:00:00 23.9 5 Norte 40 Nordeste 0 1014.1 -1 84
2019-10-20 14:00:00 24.4 13 Noroeste 31 Noroeste 0 1014.5 -0.4 78
2019-10-20 13:00:00 25.9 6 Norte 23 Noroeste 0 1014.8 0.4 75
2019-10-20 12:00:00 24.8 9 Norte 27 Noroeste 0 1015.1 1.1 77
2019-10-20 11:00:00 24.8 9 Noroeste 28 Noroeste 0 1014.9 1.3 77
2019-10-20 10:00:00 23.9 10 Noroeste 34 Norte 0 1014.4 1.1 79
2019-10-20 09:00:00 22.8 14 Norte 34 Norte 0 1014 1 83
2019-10-20 08:00:00 22.6 16 Norte 35 Norte 0 1013.6 0.7 81
2019-10-20 07:00:00 22.3 14 Norte 32 Noroeste 0 1013.3 0.4 80
2019-10-20 06:00:00 22.4 15 Norte 33 Nordeste 0 1013 -0.4 83
2019-10-20 05:00:00 22.3 16 Norte 31 Norte 0 1012.9 -1.2 85
2019-10-20 04:00:00 22.4 15 Norte 34 Norte 0 1012.9 -1.5 83
2019-10-20 03:00:00 22.4 17 Norte 30 Norte 0 1013.4 -1.4 83
2019-10-20 02:00:00 22.5 12 Norte 32 Noroeste 0 1014.1 -1 82
2019-10-20 01:00:00 22.8 17 Norte 36 Nordeste 0 1014.4 -0.2 82
2019-10-20 00:00:00 22.7 12 Norte 33 Norte 0 1014.8 0.7 80
2019-10-19 23:00:00 22.7 15 Norte 34 Norte 0 1015.1 1.3 78
2019-10-19 22:00:00 23.1 15 Norte 36 Norte 0 1014.6 0.8 73
2019-10-19 21:00:00 23.1 13 Norte 37 Norte 0 1014.1 0.4 72
2019-10-19 20:00:00 23.5 15 Norte 36 Norte 0 1013.8 0 68
2019-10-19 19:00:00 24.2 14 Noroeste 37 Noroeste 0 1013.8 0 66
2019-10-19 18:00:00 24.9 12 Noroeste 38 Nordeste 0 1013.7 -0.4 63
2019-10-19 17:00:00 25.7 15 Noroeste 48 Noroeste 0 1013.8 -1.6 62
2019-10-19 16:00:00 26.1 10 Noroeste 34 Noroeste 0 1013.8 -2.1 63
2019-10-19 15:00:00 26.1 9 Noroeste 31 Norte 0 1014.1 -2.1 62
2019-10-19 14:00:00 24.9 16 Noroeste 37 Noroeste 0 1015.4 -1 66
2019-10-19 13:00:00 24.4 11 Noroeste 34 Norte 0 1015.9 -0.1 70
2019-10-19 12:00:00 24 13 Norte 33 Oeste 0 1016.2 0.5 72
2019-10-19 11:00:00 23.1 14 Norte 28 Nordeste 0 1016.4 1.2 75
2019-10-19 10:00:00 23 9 Noroeste 26 Noroeste 0 1016 0.9 72
2019-10-19 09:00:00 22.1 9 Norte 28 Noroeste 0 1015.7 0.6 74
2019-10-19 08:00:00 21.8 10 Norte 24 Noroeste 0 1015.2 0.1 77
2019-10-19 07:00:00 21.7 8 Noroeste 19 Noroeste 0 1015.1 -0.3 82
2019-10-19 06:00:00 21.2 6 Noroeste 12 Noroeste 0 1015.1 -0.6 78
2019-10-19 05:00:00 21.2 5 Noroeste 19 Norte 0 1015.1 -1.3 79
2019-10-19 04:00:00 21.8 10 Norte 26 Noroeste 0 1015.4 -1.3 80
2019-10-19 03:00:00 22 10 Noroeste 30 Norte 0 1015.7 -1.2 79
2019-10-19 02:00:00 22.1 9 Noroeste 23 Nordeste 0 1016.4 -0.8 80
2019-10-19 01:00:00 22.1 10 Norte 28 Noroeste 0 1016.7 0 79
2019-10-19 00:00:00 22 13 Norte 29 Noroeste 0 1016.9 0.2 80
2019-10-18 23:00:00 22 9 Noroeste 32 Noroeste 0 1017.2 1 80
2019-10-18 22:00:00 22.2 13 Norte 35 Norte 0 1016.7 0.6 80
2019-10-18 21:00:00 22.3 14 Norte 32 Norte 0 1016.7 0.4 80
2019-10-18 20:00:00 22.5 13 Norte 31 Oeste 0 1016.2 -0.3 79
2019-10-18 19:00:00 23.3 9 Noroeste 27 Noroeste 0 1016.1 -0.3 76
2019-10-18 18:00:00 24.4 9 Noroeste 35 Oeste 0 1016.3 -0.9 70
2019-10-18 17:00:00 24.1 16 Noroeste 37 Noroeste 0 1016.5 -1.4 69
2019-10-18 16:00:00 24.4 13 Noroeste 36 Noroeste 0 1016.4 -2.3 67
2019-10-18 15:00:00 24.8 13 Noroeste 36 Noroeste 0 1017.2 -2 65
2019-10-18 14:00:00 25.6 14 Norte 36 Nordeste 0 1017.9 -1.2 63
2019-10-18 13:00:00 24.2 9 Noroeste 28 Noroeste 0 1018.7 -0.1 70
2019-10-18 12:00:00 24.3 11 Noroeste 27 Noroeste 0 1019.2 1.1 72
2019-10-18 11:00:00 23.2 11 Norte 28 Noroeste 0 1019.1 1 71
2019-10-18 10:00:00 22.1 10 Norte 26 Oeste 0 1018.8 0.6 74
2019-10-18 09:00:00 21.3 10 Norte 22 Noroeste 0 1018.1 0.3 75
2019-10-18 08:00:00 20.7 8 Noroeste 21 Norte 0 1018.1 0.3 77
2019-10-18 07:00:00 21.1 9 Noroeste 23 Noroeste 0 1018.2 0.1 75
2019-10-18 06:00:00 21 9 Noroeste 23 Norte 0 1017.8 -0.7 76
2019-10-18 05:00:00 21.2 7 Noroeste 30 Nordeste 0 1017.8 -1.1 77
2019-10-18 04:00:00 21.3 13 Noroeste 33 Noroeste 0 1018.1 -1.2 78
2019-10-18 03:00:00 21.4 14 Noroeste 31 Norte 0 1018.5 -1.1 77
2019-10-18 02:00:00 21.6 11 Noroeste 24 Norte 0 1018.9 -0.5 80
2019-10-18 01:00:00 22 11 Norte 21 Norte 0 1019.3 0.1 79
2019-10-18 00:00:00 21.9 12 Noroeste 24 Noroeste 0 1019.6 1.1 79
2019-10-17 23:00:00 22 14 Noroeste 30 Noroeste 0 1019.4 1.3 78
2019-10-17 22:00:00 22 14 Noroeste 29 Noroeste 0 1019.2 1.4 76
2019-10-17 21:00:00 22 9 Noroeste 20 Oeste 0 1018.5 0.6 73
2019-10-17 20:00:00 22.3 10 Noroeste 27 Noroeste 0 1018.1 0.3 71
2019-10-17 19:00:00 22.5 11 Noroeste 36 Noroeste 0 1017.8 -0.3 71
2019-10-17 18:00:00 22.8 16 Noroeste 37 Nordeste 0 1017.9 -0.4 69
2019-10-17 17:00:00 23.4 5 Norte 28 Norte 0 1017.8 -1.2 69
2019-10-17 16:00:00 24.6 6 Este 22 Sur 0 1018.1 -1.7 70
2019-10-17 15:00:00 24.4 9 Sur 27 Oeste 0 1018.3 -1.4 72
2019-10-17 14:00:00 24.8 9 Noroeste 40 Noroeste 0 1019 -0.6 64
2019-10-17 13:00:00 23.5 17 Noroeste 36 Noroeste 0 1019.8 0.5 67
2019-10-17 12:00:00 23.1 17 Noroeste 41 Oeste 0 1019.7 0.8 69
2019-10-17 11:00:00 23.1 16 Noroeste 40 Noroeste 0 1019.6 1 69
2019-10-17 10:00:00 22.6 12 Noroeste 33 Noroeste 0 1019.3 1.3 72
2019-10-17 09:00:00 21.8 10 Noroeste 31 Noroeste 0 1018.9 0.9 75
2019-10-17 08:00:00 21.2 10 Noroeste 24 Noroeste 0 1018.6 0.4 77
2019-10-17 07:00:00 21.4 10 Noroeste 21 Noroeste 0 1018 -0.3 77
2019-10-17 06:00:00 21.6 11 Noroeste 24 Noroeste 0 1018 -0.6 76
2019-10-17 05:00:00 21.5 9 Noroeste 22 Noroeste 0 1018.2 -0.6 75
2019-10-17 04:00:00 21.8 11 Noroeste 25 Noroeste 0 1018.3 -0.6 74
2019-10-17 03:00:00 22 9 Noroeste 29 Noroeste 0 1018.6 -0.9 73
2019-10-17 02:00:00 22 12 Noroeste 26 Noroeste 0 1018.8 -1 80
2019-10-17 01:00:00 22.4 10 Noroeste 20 Norte 0 1018.9 -0.3 82
2019-10-17 00:00:00 22.3 7 Norte 14 Nordeste 0 1019.5 0.8 81
2019-10-16 23:00:00 22.3 3 Noroeste 16 Oeste 0 1019.8 1.8 78
2019-10-16 22:00:00 22.3 8 Noroeste 19 Norte 0 1019.2 1.7 80
2019-10-16 21:00:00 22.3 8 Noroeste 24 Norte 0 1018.7 0.9 80
2019-10-16 20:00:00 22.5 9 Noroeste 28 Nordeste 0 1018 0.2 80
2019-10-16 19:00:00 22.8 8 Noroeste 20 Oeste 0 1017.5 -0.6 80
2019-10-16 18:00:00 22.9 0 Calma 11 Norte 0 1017.8 -0.6 83
2019-10-16 17:00:00 22.7 3 Sudeste 13 Sur 0 1017.8 -0.7 83
2019-10-16 16:00:00 22.6 7 Sur 21 Sur 0 1018.1 -1.4 82
2019-10-16 15:00:00 22.7 12 Sudeste 27 Sudeste 0 1018.4 -1.4 81
2019-10-16 14:00:00 23.7 6 Norte 32 Noroeste 0 1018.5 -1.3 74
2019-10-16 13:00:00 22.7 9 Noroeste 26 Noroeste 0 1019.5 0.8 77
2019-10-16 12:00:00 22.8 12 Noroeste 31 Noroeste 0 1019.8 1.3 75
2019-10-16 11:00:00 22.6 13 Noroeste 32 Oeste 0 1019.8 1.9 77
2019-10-16 10:00:00 22.1 14 Norte 29 Noroeste 0 1018.7 1 80
2019-10-16 09:00:00 21.9 9 Norte 22 Noroeste 0 1018.5 1 81
2019-10-16 08:00:00 21.6 8 Norte 26 Norte 0 1017.9 0.4 80
2019-10-16 07:00:00 21.6 9 Norte 22 Norte 0 1017.7 -0.2 82
2019-10-16 06:00:00 21 8 Noroeste 17 Noroeste 0 1017.5 -1 79
2019-10-16 05:00:00 20.8 8 Noroeste 12 Noroeste 0 1017.5 -1.2 77
2019-10-16 04:00:00 20.9 7 Noroeste 12 Noroeste 0 1017.9 -1 76
2019-10-16 03:00:00 21.2 7 Noroeste 12 Norte 0 1018.5 -1 74
2019-10-16 02:00:00 21.4 8 Noroeste 20 Norte 0 1018.7 -0.6 75
2019-10-16 01:00:00 21.9 12 Noroeste 26 Oeste 0 1018.9 0.2 74
2019-10-16 00:00:00 21.9 11 Noroeste 24 Nordeste 0 1019.5 1.2 77
2019-10-15 23:00:00 22.3 9 Noroeste 27 Noroeste 0 1019.3 1.3 77
2019-10-15 22:00:00 22.2 11 Noroeste 24 Oeste 0 1018.7 1.1 76
2019-10-15 21:00:00 22.2 14 Noroeste 28 Oeste 0 1018.3 1 74
2019-10-15 20:00:00 22.4 14 Noroeste 32 Noroeste 0 1018 0.9 75
2019-10-15 19:00:00 22.5 18 Noroeste 37 Noroeste 0 1017.6 -0.2 74
2019-10-15 18:00:00 23.1 15 Noroeste 35 Oeste 0 1017.3 -1.3 73
2019-10-15 17:00:00 24.2 16 Noroeste 35 Noroeste 0 1017.1 -2 71
2019-10-15 16:00:00 23.6 13 Noroeste 27 Noroeste 0 1017.8 -1.9 71
2019-10-15 15:00:00 23.8 12 Nordeste 26 Nordeste 0 1018.6 -1.4 73
2019-10-15 14:00:00 24.9 5 Este 22 Este 0 1019.1 -0.4 71
2019-10-15 13:00:00 24.3 8 Nordeste 21 Norte 0 1019.7 0.4 72
2019-10-15 12:00:00 24 6 Nordeste 25 Nordeste 0 1020 1.2 73
2019-10-15 11:00:00 23.4 5 Nordeste 25 Nordeste 0 1019.5 0.9 75
2019-10-15 10:00:00 23.1 8 Noroeste 22 Nordeste 0 1019.3 1.3 73
2019-10-15 09:00:00 22 8 Noroeste 23 Noroeste 0 1018.8 0.9 78
2019-10-15 08:00:00 21.2 10 Noroeste 31 Noroeste 0 1018.6 0.7 79
2019-10-15 07:00:00 21.3 15 Noroeste 33 Oeste 0 1018 -0.2 79
2019-10-15 06:00:00 21.2 12 Noroeste 32 Oeste 0 1017.9 -0.7 77
2019-10-15 05:00:00 21.2 13 Noroeste 34 Oeste 0 1017.9 -0.9 77
2019-10-15 04:00:00 21.6 13 Noroeste 34 Oeste 0 1018.2 -1.1 75
2019-10-15 03:00:00 21.4 12 Noroeste 34 Noroeste 0 1018.6 -1.2 76
2019-10-15 02:00:00 21.6 19 Noroeste 42 Oeste 0 1018.8 -0.5 76
2019-10-15 01:00:00 21.8 16 Noroeste 35 Nordeste 0 1019.3 0.2 79
2019-10-15 00:00:00 22 14 Norte 30 Noroeste 0 1019.8 1.3 77
2019-10-14 23:00:00 22.1 17 Noroeste 35 Norte 0 1019.3 1.4 77
2019-10-14 22:00:00 22.3 13 Noroeste 28 Noroeste 0 1019.1 1.3 72
2019-10-14 21:00:00 22.4 14 Noroeste 33 Oeste 0 1018.5 0.5 71
2019-10-14 20:00:00 22.6 13 Noroeste 33 Noroeste 0 1017.9 -0.2 70
2019-10-14 19:00:00 23.2 15 Noroeste 41 Oeste 0 1017.8 -0.2 69
2019-10-14 18:00:00 23.7 17 Noroeste 42 Oeste 0 1018 -0.3 67
2019-10-14 17:00:00 24 17 Noroeste 41 Oeste 0 1018.1 -1.1 67
2019-10-14 16:00:00 24.4 19 Noroeste 45 Noroeste 0 1018 -1.4 69
2019-10-14 15:00:00 24.5 21 Noroeste 48 Noroeste 0 1018.3 -1 69
2019-10-14 14:00:00 23.8 19 Noroeste 46 Oeste 0 1019.2 -0.2 68
2019-10-14 13:00:00 24.1 17 Noroeste 42 Noroeste 0 1019.4 1 72
2019-10-14 12:00:00 23.1 18 Noroeste 40 Oeste 0 1019.3 1.3 74
2019-10-14 11:00:00 23.1 12 Noroeste 35 Norte 0 1019.4 1.8 80
2019-10-14 10:00:00 22.1 13 Noroeste 32 Nordeste 0 1018.4 1.2 85
2019-10-14 09:00:00 21.2 11 Norte 33 Nordeste 0 1018 1.4 90
2019-10-14 08:00:00 20.8 11 Norte 30 Noroeste 0 1017.6 1.4 92
2019-10-14 07:00:00 20.7 13 Noroeste 28 Norte 0 1017.2 0.9 93
2019-10-14 06:00:00 20.7 13 Norte 36 Norte 0.1 1016.6 0.2 94
2019-10-14 05:00:00 21.6 15 Norte 36 Norte 0 1016.2 -0.6 92
2019-10-14 04:00:00 22.4 11 Norte 26 Norte 0 1016.3 -0.8 87
2019-10-14 03:00:00 22.3 8 Norte 17 Norte 0 1016.4 -0.9 88
2019-10-14 02:00:00 22.9 6 Norte 21 Norte 0 1016.8 -0.1 85
2019-10-14 01:00:00 23 11 Norte 22 Norte 0 1017.1 0.9 80
2019-10-14 00:00:00 23.1 9 Norte 22 Nordeste 0 1017.3 1.7 75
2019-10-13 23:00:00 23 10 Noroeste 27 Noroeste 0 1016.9 1.9 74
2019-10-13 22:00:00 23.2 9 Noroeste 27 Noroeste 0 1016.2 1.4 72
2019-10-13 21:00:00 23.7 9 Norte 18 Noroeste 0 1015.6 1.2 67
2019-10-13 20:00:00 24.1 13 Norte 27 Nordeste 0 1015 0.7 65
2019-10-13 19:00:00 23.6 12 Sur 19 Sur 0 1014.8 0.5 77
2019-10-13 18:00:00 23.8 13 Sur 19 Sur 0 1014.4 -0.3 78
2019-10-13 17:00:00 24.7 8 Sur 20 Norte 0 1014.3 -0.7 76
2019-10-13 16:00:00 26 4 Nordeste 14 Este 0 1014.3 -0.9 69
2019-10-13 15:00:00 25.9 3 Este 13 Sudeste 0 1014.7 -0.5 72
2019-10-13 14:00:00 25.3 5 Sudeste 12 Sudeste 0 1015 0.1 71
2019-10-13 13:00:00 25.4 4 Este 12 Este 0 1015.2 0.6 72
2019-10-13 12:00:00 25.1 4 Este 11 Nordeste 0 1015.2 1.1 69
2019-10-13 11:00:00 24.8 3 Este 10 Este 0 1014.9 1 69
2019-10-13 10:00:00 23.2 3 Nordeste 14 Norte 0 1014.6 1.2 70
2019-10-13 09:00:00 20.5 6 Norte 13 Noroeste 0 1014.1 1 77
2019-10-13 08:00:00 19.7 8 Noroeste 14 Norte 0 1013.9 0.7 78
2019-10-13 07:00:00 19.8 7 Noroeste 15 Noroeste 0 1013.4 0.2 79
2019-10-13 06:00:00 20.2 7 Norte 16 Noroeste 0 1013.1 -0.3 77
2019-10-13 05:00:00 20.7 5 Norte 14 Noroeste 0 1013.2 -0.6 76
2019-10-13 04:00:00 20.5 8 Noroeste 14 Noroeste 0 1013.2 -1 75
2019-10-13 03:00:00 20.5 6 Noroeste 14 Noroeste 0 1013.4 -1 73
2019-10-13 02:00:00 20.9 8 Noroeste 14 Noroeste 0 1013.8 -0.4 72
2019-10-13 01:00:00 21.3 9 Noroeste 14 Noroeste 0 1014.2 0.4 72
2019-10-13 00:00:00 21.6 6 Noroeste 13 Norte 0 1014.4 1 71
2019-10-12 23:00:00 22.7 8 Norte 15 Norte 0 1014.2 0.9 72
2019-10-12 22:00:00 22.6 8 Noroeste 17 Oeste 0 1013.8 0.7 73
2019-10-12 21:00:00 23 6 Noroeste 18 Noroeste 0 1013.4 0 71
2019-10-12 20:00:00 23.6 5 Norte 17 Norte 0 1013.3 0 69
2019-10-12 19:00:00 23.9 5 Norte 21 Nordeste 0 1013.1 -0.4 70
2019-10-12 18:00:00 23.7 11 Sur 19 Oeste 0 1013.4 -0.5 73
2019-10-12 17:00:00 25.2 10 Noroeste 29 Este 0 1013.3 -1.3 65
2019-10-12 16:00:00 24.9 13 Nordeste 31 Nordeste 0 1013.5 -1.8 65
2019-10-12 15:00:00 25.1 12 Nordeste 27 Nordeste 0 1013.9 -1.6 63
2019-10-12 14:00:00 25.7 10 Nordeste 23 Nordeste 0 1014.6 -0.9 60
2019-10-12 13:00:00 25.9 9 Nordeste 33 Nordeste 0 1015.3 0.3 60
2019-10-12 12:00:00 25.8 7 Norte 23 Nordeste 0 1015.5 0.9 61
2019-10-12 11:00:00 25 8 Nordeste 24 Este 0 1015.5 1.1 66
2019-10-12 10:00:00 23.6 3 Nordeste 12 Noroeste 0 1015 0.6 75
2019-10-12 09:00:00 22.7 5 Norte 18 Noroeste 0 1014.6 0.5 77
2019-10-12 08:00:00 22.7 6 Norte 16 Noroeste 0 1014.4 0.3 74
2019-10-12 07:00:00 22.7 8 Noroeste 19 Noroeste 0 1014.4 0 71
2019-10-12 06:00:00 22.5 6 Noroeste 19 Noroeste 0 1014.1 -0.5 73
2019-10-12 05:00:00 22.3 5 Noroeste 17 Norte 0 1014.1 -1.3 74
2019-10-12 04:00:00 22.5 7 Noroeste 23 Norte 0 1014.4 -1.4 74
2019-10-12 03:00:00 22.7 11 Noroeste 25 Noroeste 0 1014.6 -1.5 77
2019-10-12 02:00:00 22.9 10 Noroeste 27 Nordeste 0 1015.4 -0.8 80
2019-10-12 01:00:00 22.9 10 Norte 30 Nordeste 0 1015.8 -0.1 86
2019-10-12 00:00:00 23.1 8 Norte 25 Nordeste 0 1016.1 1.2 83
2019-10-11 23:00:00 23.1 5 Norte 26 Nordeste 0 1016.2 2 83
2019-10-11 22:00:00 23.1 9 Norte 26 Nordeste 0 1015.9 1.8 81
2019-10-11 21:00:00 23 8 Noroeste 24 Noroeste 0 1014.9 1 82
2019-10-11 20:00:00 23.1 10 Norte 24 Noroeste 0 1014.2 0.1 81
2019-10-11 19:00:00 23.8 6 Nordeste 24 Este 0 1014.1 0.2 78
2019-10-11 18:00:00 24.8 7 Norte 19 Nordeste 0 1013.9 -0.4 68
2019-10-11 17:00:00 24.6 2 Sudeste 35 Noroeste 0 1014.1 -1.2 72
2019-10-11 16:00:00 25.4 11 Noroeste 31 Noroeste 0 1013.9 -2.2 60
2019-10-11 15:00:00 26.4 8 Norte 38 Nordeste 0 1014.3 -2.2 64
2019-10-11 14:00:00 25.7 14 Nordeste 28 Este 0 1015.3 -1.3 67
2019-10-11 13:00:00 25.7 7 Nordeste 18 Este 0 1016.1 0 68
2019-10-11 12:00:00 24.6 7 Nordeste 21 Nordeste 0 1016.5 1.3 75
2019-10-11 11:00:00 24.7 4 Este 24 Norte 0 1016.6 2.2 79
2019-10-11 10:00:00 23.3 6 Nordeste 25 Noroeste 0 1016.1 1.9 82
2019-10-11 09:00:00 22.8 10 Noroeste 28 Norte 0 1015.2 1 80
2019-10-11 08:00:00 22.2 9 Noroeste 22 Noroeste 0 1014.4 0.1 79
2019-10-11 07:00:00 22.2 11 Norte 22 Noroeste 0 1014.2 -0.4 77
2019-10-11 06:00:00 22.2 9 Norte 22 Norte 0 1014.2 -0.6 78
2019-10-11 05:00:00 22.1 6 Norte 16 Noroeste 0 1014.3 -1 83
2019-10-11 04:00:00 22.3 6 Noroeste 15 Noroeste 0 1014.6 -1.1 80
2019-10-11 03:00:00 22.6 10 Noroeste 18 Noroeste 0 1014.8 -0.9 78
2019-10-11 02:00:00 22.5 6 Norte 17 Nordeste 0 1015.3 -0.2 86
2019-10-11 01:00:00 22.8 8 Norte 19 Norte 0 1015.7 0.5 84
2019-10-11 00:00:00 22.7 8 Norte 28 Oeste 0 1015.7 1.3 84
2019-10-10 23:00:00 22.7 11 Norte 26 Norte 0 1015.5 1.7 84
2019-10-10 22:00:00 22.9 11 Norte 27 Nordeste 0 1015.2 1.7 87
2019-10-10 21:00:00 23.1 9 Noroeste 24 Noroeste 0 1014.4 0.7 80
2019-10-10 20:00:00 23.4 13 Noroeste 25 Noroeste 0 1013.8 0.6 79
2019-10-10 19:00:00 24 2 Norte 31 Norte 0 1013.5 -0.1 78
2019-10-10 18:00:00 24.3 7 Este 22 Sudeste 0 1013.7 -0.1 78
2019-10-10 17:00:00 25.4 3 Este 33 Este 0 1013.2 -1.3 68
2019-10-10 16:00:00 26.9 2 Este 27 Este 0 1013.6 -1.5 62
2019-10-10 15:00:00 25.6 12 Nordeste 30 Nordeste 0 1013.8 -1.6 69
2019-10-10 14:00:00 25 12 Nordeste 33 Oeste 0 1014.5 -0.6 72
2019-10-10 13:00:00 25.7 15 Noroeste 35 Norte 0 1015.1 0.3 63
2019-10-10 12:00:00 25.6 12 Noroeste 40 Oeste 0 1015.4 0.9 62
2019-10-10 11:00:00 25 10 Noroeste 30 Oeste 0 1015.1 0.7 65
2019-10-10 10:00:00 24.4 10 Noroeste 27 Noroeste 0 1014.8 1 69
2019-10-10 09:00:00 22.7 8 Norte 18 Norte 0 1014.5 0.8 75
2019-10-10 08:00:00 22.3 8 Nordeste 21 Noroeste 0 1014.4 0.8 80
2019-10-10 07:00:00 22.4 10 Noroeste 28 Norte 0 1013.8 0 80
2019-10-10 06:00:00 22.6 12 Noroeste 28 Noroeste 0 1013.7 -0.7 77
2019-10-10 05:00:00 22.6 10 Noroeste 27 Noroeste 0 1013.6 -1.6 73
2019-10-10 04:00:00 22.6 9 Noroeste 28 Noroeste 0 1013.8 -1.5 74
2019-10-10 03:00:00 22.7 10 Noroeste 31 Noroeste 0 1014.4 -1.2 75
2019-10-10 02:00:00 22.7 10 Norte 27 Noroeste 0 1015.2 -0.2 74
2019-10-10 01:00:00 22.8 9 Noroeste 26 Oeste 0 1015.3 0.1 74
2019-10-10 00:00:00 22.8 12 Noroeste 30 Norte 0 1015.6 0.7 75
2019-10-09 23:00:00 23 9 Noroeste 26 Norte 0 1015.4 0.9 77
2019-10-09 22:00:00 23.1 11 Noroeste 31 Noroeste 0 1015.2 0.9 74
2019-10-09 21:00:00 23.1 12 Noroeste 29 Noroeste 0 1014.9 0.8 74
2019-10-09 20:00:00 23.3 13 Norte 33 Noroeste 0 1014.5 0.5 74
2019-10-09 19:00:00 23.7 15 Noroeste 43 Noroeste 0 1014.3 0.2 74
2019-10-09 18:00:00 24 20 Noroeste 44 Noroeste 0 1014.1 -0.2 72
2019-10-09 17:00:00 24.8 17 Noroeste 43 Noroeste 0 1014 -0.9 70
2019-10-09 16:00:00 24.9 18 Noroeste 44 Noroeste 0 1014.1 -0.8 68
2019-10-09 15:00:00 24.2 21 Noroeste 48 Noroeste 0 1014.3 -0.8 69
2019-10-09 14:00:00 24.8 18 Norte 45 Nordeste 0 1014.9 0 70
2019-10-09 13:00:00 24.3 20 Norte 48 Norte 0 1014.9 0.4 70
2019-10-09 12:00:00 24.1 18 Noroeste 50 Noroeste 0 1015.1 0.9 70
2019-10-09 11:00:00 24.6 17 Noroeste 38 Nordeste 0 1014.9 1.2 70
2019-10-09 10:00:00 23.5 15 Noroeste 43 Noroeste 0 1014.5 0.7 74
2019-10-09 09:00:00 22.4 19 Norte 44 Norte 0 1014.2 0.8 77
2019-10-09 08:00:00 22 13 Norte 35 Noroeste 0 1013.7 0 78
2019-10-09 07:00:00 22 12 Norte 37 Noroeste 0 1013.8 -0.1 77
2019-10-09 06:00:00 22.2 14 Noroeste 39 Norte 0 1013.4 -0.9 79
2019-10-09 05:00:00 22.2 14 Norte 42 Oeste 0 1013.7 -1 77
2019-10-09 04:00:00 22.2 15 Noroeste 40 Noroeste 0 1013.9 -0.9 77
2019-10-09 03:00:00 22.4 16 Noroeste 38 Noroeste 0 1014.3 -1.2 77
2019-10-09 02:00:00 22.5 17 Noroeste 36 Oeste 0 1014.7 -0.9 77
2019-10-09 01:00:00 22.6 17 Norte 46 Noroeste 0 1014.8 -0.2 77
2019-10-09 00:00:00 22.6 19 Norte 42 Norte 0 1015.5 1 79
2019-10-08 23:00:00 22.6 21 Norte 45 Norte 0 1015.6 1.6 79
2019-10-08 22:00:00 22.8 15 Norte 40 Noroeste 0 1015 1.2 81
2019-10-08 21:00:00 22.8 15 Noroeste 38 Noroeste 0 1014.5 0.7 81
2019-10-08 20:00:00 22.9 21 Norte 44 Norte 0 1014 0.3 83
2019-10-08 19:00:00 23.3 23 Norte 43 Noroeste 0 1013.8 -0.7 83
2019-10-08 18:00:00 23.8 21 Norte 49 Norte 0 1013.8 -0.3 81
2019-10-08 17:00:00 24.1 21 Norte 42 Norte 0 1013.7 -1 80
2019-10-08 16:00:00 24 13 Sur 20 Sur 0 1014.5 -0.5 87
2019-10-08 15:00:00 25.3 5 Sudeste 19 Sur 0 1014.1 -1.1 78
2019-10-08 14:00:00 24 16 Sur 26 Sur 0 1014.7 -0.2 86
2019-10-08 13:00:00 24 14 Sur 27 Nordeste 0 1015 0.4 85
2019-10-08 12:00:00 23.3 15 Sur 28 Noroeste 0 1015.2 1.1 90
2019-10-08 11:00:00 25.1 12 Noroeste 31 Norte 0 1014.9 0.9 68
2019-10-08 10:00:00 23.9 16 Norte 45 Norte 0 1014.6 1 74
2019-10-08 09:00:00 22.9 23 Norte 49 Norte 0 1014.1 0.4 80
2019-10-08 08:00:00 22.6 19 Norte 38 Norte 0 1014 0.4 80
2019-10-08 07:00:00 22.4 24 Norte 44 Norte 0 1013.6 -0.1 80
2019-10-08 06:00:00 21.4 2 Noroeste 20 Nordeste 0 1013.7 -0.4 83
2019-10-08 05:00:00 20.8 3 Noroeste 9 Noroeste 0 1013.6 -0.7 87
2019-10-08 04:00:00 21.1 0 Calma 4 Noroeste 0 1013.7 -0.9 89
2019-10-08 03:00:00 21.6 0 Calma 3 Oeste 0 1014.1 -0.4 89
2019-10-08 02:00:00 21.9 0 Calma 8 Sur 0 1014.3 -0.2 90
2019-10-08 01:00:00 22.5 7 Sur 14 Sur 0 1014.6 0.5 92
2019-10-08 00:00:00 22.6 8 Sudeste 18 Noroeste 0 1014.5 0.9 92
2019-10-07 23:00:00 23.8 10 Norte 31 Norte 0 1014.5 1.1 74
2019-10-07 22:00:00 23.6 16 Norte 44 Norte 0 1014.1 0.9 79
2019-10-07 21:00:00 23.5 24 Norte 37 Norte 0 1013.6 0.2 80
2019-10-07 20:00:00 24 19 Norte 43 Norte 0 1013.4 -0.3 76
2019-10-07 19:00:00 24.5 19 Norte 48 Norte 0 1013.2 -1 76
2019-10-07 18:00:00 24.5 24 Norte 44 Norte 0 1013.4 -1.1 79
2019-10-07 17:00:00 24.3 21 Norte 41 Nordeste 0 1013.7 -1.5 79
2019-10-07 16:00:00 23.6 14 Sur 21 Sur 0 1014.2 -1.7 86
2019-10-07 15:00:00 23.6 13 Sur 18 Sur 0 1014.5 -1.8 86
2019-10-07 14:00:00 23.8 10 Sur 16 Sudeste 0 1015.2 -0.8 85
2019-10-07 13:00:00 24.1 12 Sur 18 Sudeste 0 1015.9 0.7 86
2019-10-07 12:00:00 24.8 5 Sudeste 27 Sur 0 1016.3 1.5 80
2019-10-07 11:00:00 23.5 14 Sur 23 Sur 0 1016 1.8 83
2019-10-07 10:00:00 24.6 5 Noroeste 18 Noroeste 0 1015.2 1.6 75
2019-10-07 09:00:00 23 7 Norte 27 Noroeste 0 1014.8 1.3 79
2019-10-07 08:00:00 22.4 11 Noroeste 29 Noroeste 0 1014.2 0.8 81
2019-10-07 07:00:00 22.5 15 Noroeste 32 Norte 0 1013.6 0 79
2019-10-07 06:00:00 22.3 15 Noroeste 37 Noroeste 0 1013.5 -0.4 83
2019-10-07 05:00:00 22.3 14 Noroeste 35 Norte 0 1013.4 -0.5 81
2019-10-07 04:00:00 22.6 18 Noroeste 46 Oeste 0 1013.6 -1.5 79
2019-10-07 03:00:00 22.5 14 Noroeste 41 Noroeste 0 1013.9 -1.5 80
2019-10-07 02:00:00 22.6 21 Noroeste 44 Noroeste 0 1013.9 -1.9 80
2019-10-07 01:00:00 22.7 17 Noroeste 43 Norte 0 1015.1 -0.8 82
2019-10-07 00:00:00 22.9 18 Noroeste 44 Noroeste 0 1015.4 -0.2 80
2019-10-06 23:00:00 22.9 19 Norte 40 Norte 0 1015.8 0.3 78
2019-10-06 22:00:00 23 19 Norte 44 Norte 0 1015.9 0.8 77
2019-10-06 21:00:00 23.1 16 Noroeste 44 Norte 0 1015.6 0.6 79
2019-10-06 20:00:00 23.5 17 Noroeste 44 Norte 0 1015.5 0.5 80
2019-10-06 19:00:00 24 14 Noroeste 40 Norte 0 1015.1 -0.2 76
2019-10-06 18:00:00 25 18 Noroeste 42 Noroeste 0 1015 -0.4 74
2019-10-06 17:00:00 25.3 15 Noroeste 39 Noroeste 0 1015 -0.8 72
2019-10-06 16:00:00 25.3 17 Noroeste 47 Noroeste 0 1015.3 -0.9 73
2019-10-06 15:00:00 26.7 6 Oeste 44 Nordeste 0 1015.4 -0.9 72
2019-10-06 14:00:00 25.4 16 Norte 48 Nordeste 0 1015.8 -0.4 69
2019-10-06 13:00:00 25.8 14 Noroeste 39 Noroeste 0 1016.2 0.7 67
2019-10-06 12:00:00 25 22 Noroeste 41 Noroeste 0 1016.3 1.2 72
2019-10-06 11:00:00 24 21 Noroeste 47 Noroeste 0 1016.2 1.7 76
2019-10-06 10:00:00 23.6 17 Noroeste 46 Norte 0 1015.5 1.1 77
2019-10-06 09:00:00 22.9 19 Noroeste 50 Noroeste 0 1015.1 1.2 79
2019-10-06 08:00:00 22.6 17 Noroeste 44 Noroeste 0 1014.5 0.6 82
2019-10-06 07:00:00 22.6 14 Noroeste 42 Oeste 0 1014.4 0.3 81
2019-10-06 06:00:00 22.6 17 Noroeste 48 Noroeste 0 1013.9 -0.6 84
2019-10-06 05:00:00 22.7 16 Noroeste 42 Noroeste 0 1013.9 -1.2 84
2019-10-06 04:00:00 22.8 22 Noroeste 60 Nordeste 0 1014.1 -1.1 81
2019-10-06 03:00:00 22.7 22 Noroeste 56 Norte 0 1014.5 -1 83
2019-10-06 02:00:00 23 21 Norte 59 Norte 0 1015.1 -0.5 81
2019-10-06 01:00:00 23.1 18 Noroeste 59 Norte 0 1015.2 0.5 82
2019-10-06 00:00:00 23.1 25 Norte 53 Norte 0 1015.5 1.2 83
2019-10-05 23:00:00 23.3 21 Norte 55 Noroeste 0 1015.6 1.3 82
2019-10-05 22:00:00 23.3 23 Noroeste 54 Noroeste 0 1014.7 0.5 84
2019-10-05 21:00:00 23.8 25 Norte 63 Noroeste 0 1014.3 0.4 83
2019-10-05 20:00:00 24.1 24 Noroeste 62 Norte 0 1014.3 0.8 81
2019-10-05 19:00:00 24.5 17 Noroeste 47 Nordeste 0 1014.2 0.3 82
2019-10-05 18:00:00 25 13 Noroeste 50 Noroeste 0 1013.9 -0.3 78
2019-10-05 17:00:00 25.7 16 Noroeste 44 Noroeste 0 1013.5 -0.9 75
2019-10-05 16:00:00 25.1 15 Noroeste 50 Norte 0 1013.9 -0.9 81
2019-10-05 15:00:00 25.7 16 Noroeste 53 Nordeste 0 1014.2 -0.8 79
2019-10-05 14:00:00 25.7 18 Noroeste 57 Oeste 0 1014.4 -1 79
2019-10-05 13:00:00 26.2 22 Noroeste 67 Norte 0 1014.8 0.5 75
2019-10-05 12:00:00 25.9 18 Norte 57 Norte 0 1015 1 74
2019-10-05 11:00:00 25.6 15 Norte 51 Norte 0 1015.4 2.1 74
2019-10-05 10:00:00 24.8 13 Noroeste 61 Oeste 0 1014.3 1.6 77
2019-10-05 09:00:00 23.9 13 Noroeste 48 Oeste 0 1014 1.4 81
2019-10-05 08:00:00 23.4 14 Noroeste 52 Noroeste 0 1013.3 1 80
2019-10-05 07:00:00 23.4 21 Noroeste 50 Noroeste 0 1012.7 0.3 79
2019-10-05 06:00:00 23.1 15 Noroeste 50 Noroeste 0 1012.6 0.1 79
2019-10-05 05:00:00 23.2 21 Noroeste 46 Noroeste 0 1012.3 -0.3 78
2019-10-05 04:00:00 23.6 15 Noroeste 39 Oeste 0 1012.4 -0.8 76
2019-10-05 03:00:00 23.7 12 Norte 56 Norte 0 1012.5 -1.7 71
2019-10-05 02:00:00 25 12 Norte 41 Norte 0 1012.6 -1.7 62
2019-10-05 01:00:00 24.5 13 Norte 25 Norte 0 1013.2 -0.8 65
2019-10-05 00:00:00 22.9 0 Calma 12 Sur 0 1014.2 0.3 93
2019-10-04 23:00:00 23 5 Sudeste 22 Norte 0 1014.3 0.4 92
2019-10-04 22:00:00 25.5 17 Norte 59 Noroeste 0 1014 0.3 64
2019-10-04 21:00:00 24.5 15 Norte 36 Norte 0 1013.9 0.1 71
2019-10-04 20:00:00 24.8 14 Norte 29 Norte 0 1013.9 0.6 71
2019-10-04 19:00:00 24.1 12 Sur 21 Sur 0 1013.7 0.4 87
2019-10-04 18:00:00 25.3 11 Sur 23 Sudeste 0 1013.8 0 84
2019-10-04 17:00:00 25.6 13 Sur 25 Sudeste 0 1013.3 -1.1 78
2019-10-04 16:00:00 28.1 5 Este 28 Nordeste 0 1013.3 -2.5 60
2019-10-04 15:00:00 25 21 Sur 35 Nordeste 0 1013.8 -2.1 81
2019-10-04 14:00:00 25.5 9 Sudeste 27 Sudeste 0 1014.4 -1.5 81
2019-10-04 13:00:00 25.5 6 Sudeste 44 Oeste 0 1015.8 0.3 85
2019-10-04 12:00:00 27.4 16 Norte 46 Norte 0 1015.9 0.9 58
2019-10-04 11:00:00 25.5 28 Norte 53 Norte 0 1015.9 0.8 65
2019-10-04 10:00:00 25.5 22 Norte 49 Norte 0 1015.5 0.8 63
2019-10-04 09:00:00 25.6 22 Norte 47 Norte 0 1015 0.9 58
2019-10-04 08:00:00 25.2 26 Norte 52 Norte 0 1015.1 -0.1 60
2019-10-04 07:00:00 25.6 23 Norte 61 Nordeste 0 1014.7 -0.9 58
2019-10-04 06:00:00 24.9 16 Noroeste 47 Noroeste 0 1014.1 -1.6 62
2019-10-04 05:00:00 22.2 9 Sur 21 Este 0 1015.2 -0.9 95
2019-10-04 04:00:00 22.2 6 Sudeste 16 Sur 0 1015.6 -1.1 95
2019-10-04 03:00:00 22.4 4 Sur 13 Sur 0 1015.7 -0.9 96
2019-10-04 02:00:00 22.6 0 Calma 8 Este 0 1016.1 -0.9 96
2019-10-04 01:00:00 22.9 6 Sudeste 23 Sur 0 1016.7 0.2 95
2019-10-04 00:00:00 23 8 Sudeste 15 Sur 0 1016.6 0.6 95
2019-10-03 23:00:00 23.2 6 Sudeste 14 Sur 0 1017 1.5 95
2019-10-03 22:00:00 23.4 6 Sudeste 12 Sur 0 1016.5 0.6 95
2019-10-03 21:00:00 23.4 11 Sur 19 Sur 0 1016 0.1 95
2019-10-03 20:00:00 24 4 Sudeste 13 Sudeste 0 1015.5 -0.6 93
2019-10-03 19:00:00 24.3 12 Sudeste 19 Sudeste 0 1015.9 -0.6 92
2019-10-03 18:00:00 25.5 9 Sudeste 18 Sur 0 1015.9 -0.4 87
2019-10-03 17:00:00 25.5 9 Sudeste 21 Sur 0 1016.1 -1.1 86
2019-10-03 16:00:00 25.6 11 Sudeste 21 Sudeste 0 1016.5 -1.5 82
2019-10-03 15:00:00 25 17 Sur 22 Sudeste 0 1016.3 -1.7 85
2019-10-03 14:00:00 25.6 8 Sudeste 14 Sudeste 0 1017.2 -0.7 84
2019-10-03 13:00:00 25.6 5 Sudeste 18 Sur 0 1018 0.3 87
2019-10-03 12:00:00 25.3 5 Sudeste 17 Sur 0 1018 0.6 89
2019-10-03 11:00:00 25.4 3 Sudeste 12 Sudeste 0 1017.9 1 90
2019-10-03 10:00:00 24.4 3 Sudeste 9 Sur 0 1017.7 1.1 88
2019-10-03 09:00:00 22.1 3 Norte 12 Noroeste 0 1017.4 1.4 92
2019-10-03 08:00:00 21.3 0 Calma 10 Noroeste 0 1016.9 0.9 93
2019-10-03 07:00:00 21.3 0 Calma 4 Este 0 1016.6 0.7 95
2019-10-03 06:00:00 21.4 0 Calma 3 Norte 0 1016 0.1 96
2019-10-03 05:00:00 22 0 Calma 5 Sur 0 1016 0 96
2019-10-03 04:00:00 22.5 0 Calma 7 Este 0 1015.9 -0.2 95
2019-10-03 03:00:00 22.7 0 Calma 5 Sudeste 0 1015.9 -0.2 94
2019-10-03 02:00:00 23.2 0 Calma 9 Sur 0 1016 -0.2 95
2019-10-03 01:00:00 23.5 4 Sur 10 Sudeste 0 1016.1 -0.1 94
2019-10-03 00:00:00 23.7 3 Noroeste 7 Noroeste 0 1016.1 0.1 91
2019-10-02 23:00:00 23.9 3 Noroeste 6 Noroeste 0 1016.2 0.7 92
2019-10-02 22:00:00 23.7 0 Calma 5 Sudeste 0 1016.2 0.8 94
2019-10-02 21:00:00 24 0 Calma 14 Sur 0 1016 0.9 94
2019-10-02 20:00:00 24.2 8 Sur 11 Sur 0 1015.5 0.2 93
2019-10-02 19:00:00 24.9 9 Sur 20 Sur 0 1015.4 0.1 90
2019-10-02 18:00:00 27 4 Sudeste 19 Norte 0 1015.1 -0.5 81
2019-10-02 17:00:00 27.6 9 Este 24 Nordeste 0 1015.3 -0.6 76
2019-10-02 16:00:00 26.6 5 Sudeste 15 Sur 0 1015.3 -0.9 85
2019-10-02 15:00:00 24.8 12 Sur 21 Sur 0 1015.6 -0.5 90
2019-10-02 14:00:00 25.4 5 Sudeste 17 Sur 0 1015.9 -0.2 89
2019-10-02 13:00:00 24.4 17 Sur 21 Sur 0 1016.2 0.5 92
2019-10-02 12:00:00 27.7 4 Sudeste 11 Este 0 1016.1 1.5 69
2019-10-02 11:00:00 25.1 6 Sur 9 Sur 0 1016.1 2.1 85
2019-10-02 10:00:00 25 3 Sur 5 Sur 0 1015.7 2 86
2019-10-02 09:00:00 22.7 2 Noroeste 9 Norte 0 1014.6 1 86
2019-10-02 08:00:00 21.9 4 Noroeste 9 Noroeste 0 1014 0.6 87
2019-10-02 07:00:00 21.9 0 Calma 5 Norte 0 1013.7 0.2 86
2019-10-02 06:00:00 22.8 0 Calma 4 Noroeste 0 1013.6 -0.3 91
2019-10-02 05:00:00 23.4 0 Calma 13 Sur 0 1013.4 -1 94
2019-10-02 04:00:00 24 3 Este 12 Noroeste 0 1013.5 -1.3 87
2019-10-02 03:00:00 24.2 7 Norte 21 Norte 0 1013.9 -1.4 74
2019-10-02 02:00:00 23.9 9 Noroeste 13 Noroeste 0 1014.4 -1.1 83
2019-10-02 01:00:00 23.6 5 Noroeste 8 Noroeste 0 1014.8 0.1 84
2019-10-02 00:00:00 24.1 3 Noroeste 5 Noroeste 0 1015.3 0.9 83
2019-10-01 23:00:00 24.1 0 Calma 10 Sur 0 1015.5 1.5 90
2019-10-01 22:00:00 24.5 2 Noroeste 9 Sur 0 1014.7 0.7 87
2019-10-01 21:00:00 24.6 0 Calma 11 Sur 0 1014.4 0.7 90
2019-10-01 20:00:00 24.7 8 Sur 12 Sur 0 1014 0.3 87
2019-10-01 19:00:00 25.8 2 Sudeste 14 Sur 0 1014 0.6 87
2019-10-01 18:00:00 25.6 11 Sur 16 Sur 0 1013.7 -0.3 84
2019-10-01 17:00:00 25.9 13 Sur 19 Sur 0 1013.7 -0.8 81
2019-10-01 16:00:00 25.9 9 Sur 16 Sur 0 1013.4 -1.5 81
2019-10-01 15:00:00 26.3 9 Sudeste 23 Sur 0 1014 -0.5 79
2019-10-01 14:00:00 26.1 17 Sur 23 Sur 0 1014.5 -0.6 70
2019-10-01 13:00:00 26.5 8 Sur 29 Sur 0 1014.9 0.1 68
2019-10-01 12:00:00 28.5 0 Calma 12 Sur 0 1014.5 1.1 65
2019-10-01 11:00:00 25.1 11 Sur 15 Sur 0 1015.1 1.8 74
2019-10-01 10:00:00 23.9 2 Sur 13 Sur 0 1014.8 2 89
2019-10-01 09:00:00 22.5 0 Calma 18 Noroeste 0 1013.4 1.3 83
2019-10-01 08:00:00 21.4 2 Noroeste 9 Noroeste 0 1013.3 1.3 89
2019-10-01 07:00:00 21.8 0 Calma 5 Norte 0 1012.8 0.4 91
2019-10-01 06:00:00 21.8 3 Noroeste 8 Noroeste 0 1012.1 -0.5 93
2019-10-01 05:00:00 22 2 Norte 13 Noroeste 0 1012 -1 95
2019-10-01 04:00:00 22.2 0 Calma 12 Sur 0 1012.4 -0.6 95
2019-10-01 03:00:00 22.8 5 Sudeste 10 Sudeste 0 1012.6 -0.8 95
2019-10-01 02:00:00 23.2 3 Sudeste 17 Sur 0 1013 -0.1 95
2019-10-01 01:00:00 22.7 0 Calma 11 Sur 0 1013 -0.3 95
2019-10-01 00:00:00 23.2 4 Sudeste 19 Sur 0 1013.4 0.7 95
2019-09-30 23:00:00 23.9 6 Sudeste 20 Noroeste 0 1013.1 1.2 92
2019-09-30 22:00:00 23.4 2 Sudeste 11 Sur 0 1013.3 1.5 95
2019-09-30 21:00:00 23.6 5 Sudeste 18 Sur 0 1012.7 1.9 94
2019-09-30 20:00:00 24.1 8 Sur 19 Sur 0 1011.9 0.3 93
2019-09-30 19:00:00 24.3 15 Sur 31 Norte 0 1011.8 0.1 93
2019-09-30 18:00:00 27.7 23 Norte 41 Nordeste 0 1010.8 -1 64
2019-09-30 17:00:00 26.4 10 Sur 37 Norte 0 1011.6 -1 81
2019-09-30 16:00:00 27.3 17 Norte 37 Norte 0 1011.7 -1.6 68
2019-09-30 15:00:00 27.2 15 Nordeste 37 Este 0 1011.8 -1.7 70
2019-09-30 14:00:00 25.2 11 Sur 28 Nordeste 0 1012.6 -0.3 87
2019-09-30 13:00:00 24.5 10 Sur 16 Sudeste 0 1013.3 0.2 90
2019-09-30 12:00:00 24.2 9 Sudeste 23 Sur 0 1013.5 1.1 93
2019-09-30 11:00:00 24.3 5 Sudeste 17 Sur 0 1012.9 0.7 87
2019-09-30 10:00:00 23.2 9 Sur 14 Sur 0 1013.1 1.2 94
2019-09-30 09:00:00 22.6 2 Noroeste 12 Noroeste 0 1012.4 0.9 89
2019-09-30 08:00:00 22.4 0 Calma 8 Noroeste 0 1012.2 0.4 92
2019-09-30 07:00:00 22.3 3 Sudeste 9 Sur 0 1011.9 0.2 90
2019-09-30 06:00:00 22.4 0 Calma 9 Sur 0 1011.5 -0.8 93
2019-09-30 05:00:00 22.5 4 Sur 19 Norte 0 1011.8 -0.6 95
2019-09-30 04:00:00 22.9 0 Calma 9 Sur 0 1011.7 -0.7 93
2019-09-30 03:00:00 22.9 3 Este 13 Sur 0 1012.3 -0.6 96
2019-09-30 02:00:00 23.6 3 Sur 16 Sur 0 1012.4 -0.3 91
2019-09-30 01:00:00 23.2 0 Calma 10 Sur 0 1012.4 -0.5 91
2019-09-30 00:00:00 23.6 5 Sudeste 14 Sur 0 1012.9 0.3 92
2019-09-29 23:00:00 23.3 6 Sur 10 Sur 0 1012.7 0.2 92
2019-09-29 22:00:00 23.5 3 Sur 9 Sudoeste 0 1012.9 0.4 92
2019-09-29 21:00:00 23.5 3 Sudeste 12 Sur 0 1012.6 -0.4 90
2019-09-29 20:00:00 23.8 5 Sur 10 Sudeste 0 1012.5 -0.4 92
2019-09-29 19:00:00 24.3 7 Sudeste 13 Sur 0 1012.5 -1.1 90
2019-09-29 18:00:00 25.4 9 Sur 23 Nordeste 0 1013 -0.9 88
2019-09-29 17:00:00 27.3 0 Calma 22 Nordeste 0 1012.9 -2.2 72
2019-09-29 16:00:00 24.8 9 Sur 19 Sur 0 1013.6 -2.2 84
2019-09-29 15:00:00 24.1 15 Sur 21 Sur 0 1013.9 -2.1 88
2019-09-29 14:00:00 24.2 10 Sur 17 Sur 0 1015.1 -0.4 89
2019-09-29 13:00:00 23.8 10 Sur 18 Sur 0 1015.8 0.6 92
2019-09-29 12:00:00 23.5 14 Sur 18 Sur 0 1016 1.7 92
2019-09-29 11:00:00 23.3 13 Sur 19 Sur 0 1015.5 1.6 90
2019-09-29 10:00:00 23.7 4 Sudeste 15 Sur 0 1015.2 1.9 89
2019-09-29 09:00:00 22.2 6 Sudeste 15 Sudeste 0 1014.3 1.2 91
2019-09-29 08:00:00 22.4 3 Sudeste 27 Norte 0 1013.9 0.5 91
2019-09-29 07:00:00 23.3 14 Norte 39 Norte 0 1013.3 -0.6 79
2019-09-29 06:00:00 23.3 18 Norte 34 Norte 0 1013.1 -1.3 79
2019-09-29 05:00:00 23.2 9 Norte 21 Nordeste 0 1013.4 -1.6 79
2019-09-29 04:00:00 22.6 3 Este 12 Sudeste 0 1013.9 -1.4 89
2019-09-29 03:00:00 22.6 2 Sur 10 Sur 0 1014.4 -1.4 90
2019-09-29 02:00:00 23.4 3 Nordeste 15 Norte 0 1015 -1 80
2019-09-29 01:00:00 23.4 13 Norte 31 Noroeste 0 1015.3 -0.3 78
2019-09-29 00:00:00 23.3 14 Norte 31 Norte 0 1015.8 0.3 80
2019-09-28 23:00:00 23.4 14 Norte 36 Norte 0 1016 0.9 81
2019-09-28 22:00:00 23.5 22 Norte 44 Norte 0 1015.6 0.4 80
2019-09-28 21:00:00 23.3 20 Norte 39 Noroeste 0 1015.5 0 83
2019-09-28 20:00:00 24.1 13 Norte 34 Norte 0 1015.1 -0.8 80
2019-09-28 19:00:00 26.2 3 Noroeste 20 Noroeste 0 1015.2 -0.9 75
2019-09-28 18:00:00 25.6 3 Sur 18 Sudoeste 0 1015.5 -1.2 80
2019-09-28 17:00:00 24.8 12 Sur 20 Sudoeste 0 1015.9 -1.2 80
2019-09-28 16:00:00 25.8 6 Sur 20 Sur 0 1016.1 -1.2 79
2019-09-28 15:00:00 24.3 12 Sur 20 Sur 0 1016.7 -0.3 86
2019-09-28 14:00:00 24.2 12 Sur 23 Sur 0 1017.1 0 86
2019-09-28 13:00:00 24.1 14 Sur 22 Sur 0 1017.3 0.4 85
2019-09-28 12:00:00 23.4 15 Sur 22 Sur 0 1017 1.1 90
2019-09-28 11:00:00 23.7 15 Sur 20 Sur 0 1017.1 1.9 88
2019-09-28 10:00:00 25.1 3 Nordeste 26 Noroeste 0 1016.9 1.8 76
2019-09-28 09:00:00 23.4 12 Noroeste 42 Noroeste 0 1015.9 0.7 77
2019-09-28 08:00:00 22.8 19 Norte 44 Noroeste 0 1015.2 -0.1 81
2019-09-28 07:00:00 22.8 17 Noroeste 41 Noroeste 0 1015.1 -0.7 77
2019-09-28 06:00:00 22.7 10 Noroeste 31 Noroeste 0 1015.2 -0.7 80
2019-09-28 05:00:00 22.7 13 Noroeste 36 Noroeste 0 1015.3 -1.2 79
2019-09-28 04:00:00 22.8 18 Norte 44 Norte 0 1015.8 -1 82
2019-09-28 03:00:00 22.8 24 Noroeste 51 Norte 0 1015.9 -1.7 82
2019-09-28 02:00:00 23.1 14 Noroeste 37 Noroeste 0 1016.5 -1 77
2019-09-28 01:00:00 23.3 14 Noroeste 27 Noroeste 0 1016.8 -0.1 78
2019-09-28 00:00:00 23.4 14 Noroeste 28 Oeste 0 1017.6 1.2 77
2019-09-27 23:00:00 23.5 11 Noroeste 27 Noroeste 0 1017.5 1.2 79
2019-09-27 22:00:00 23.7 12 Noroeste 28 Noroeste 0 1016.9 0.8 77
2019-09-27 21:00:00 23.9 12 Noroeste 31 Noroeste 0 1016.4 0.2 77
2019-09-27 20:00:00 24.2 11 Noroeste 27 Noroeste 0 1016.3 0.1 77
2019-09-27 19:00:00 24.8 13 Norte 42 Noroeste 0 1016.1 -0.1 75
2019-09-27 18:00:00 24.9 20 Noroeste 51 Noroeste 0 1016.2 -0.5 77
2019-09-27 17:00:00 25 20 Noroeste 50 Noroeste 0 1016.2 -0.8 72
2019-09-27 16:00:00 24.8 22 Noroeste 48 Norte 0 1016.2 -1.6 73
2019-09-27 15:00:00 25.7 19 Norte 44 Noroeste 0 1016.7 -1.4 69
2019-09-27 14:00:00 25.7 14 Norte 40 Oeste 0 1017 -0.8 67
2019-09-27 13:00:00 25.4 18 Noroeste 44 Oeste 0 1017.8 0.2 72
2019-09-27 12:00:00 25.3 19 Noroeste 50 Norte 0 1018.1 1.2 74
2019-09-27 11:00:00 25 14 Noroeste 34 Oeste 0 1017.8 1.1 74
2019-09-27 10:00:00 24.4 18 Noroeste 41 Oeste 0 1017.6 1.1 76
2019-09-27 09:00:00 23.2 11 Noroeste 37 Norte 0 1016.9 0.6 77
2019-09-27 08:00:00 22.8 16 Noroeste 35 Noroeste 0 1016.7 0.4 78
2019-09-27 07:00:00 22.9 14 Noroeste 40 Noroeste 0 1016.5 -0.1 78
2019-09-27 06:00:00 22.9 14 Noroeste 36 Oeste 0 1016.3 -0.5 77
2019-09-27 05:00:00 22.9 15 Noroeste 46 Norte 0 1016.3 -1.1 77
2019-09-27 04:00:00 23.1 13 Noroeste 38 Norte 0 1016.6 -1.1 77
2019-09-27 03:00:00 23.2 17 Noroeste 41 Noroeste 0 1016.8 -1.1 77
2019-09-27 02:00:00 23.2 15 Noroeste 34 Norte 0 1017.4 -0.4 81
2019-09-27 01:00:00 23.5 14 Noroeste 31 Oeste 0 1017.7 0.3 81
2019-09-27 00:00:00 23.3 13 Noroeste 33 Norte 0 1017.9 1.5 79
2019-09-26 23:00:00 23.4 13 Norte 39 Nordeste 0 1017.8 1.5 80
2019-09-26 22:00:00 23.5 13 Noroeste 52 Nordeste 0 1017.4 1.4 80
2019-09-26 21:00:00 23.7 16 Noroeste 37 Noroeste 0 1016.4 0.5 80
2019-09-26 20:00:00 23.9 17 Noroeste 39 Noroeste 0 1016.3 0.9 80
2019-09-26 19:00:00 24.4 19 Noroeste 38 Oeste 0 1016 0 77
2019-09-26 18:00:00 25.5 17 Noroeste 41 Noroeste 0 1015.9 -0.3 76
2019-09-26 17:00:00 26.5 15 Norte 43 Norte 0 1015.4 -1.3 72
2019-09-26 16:00:00 25.1 9 Sur 25 Sudeste 0 1016 -1.1 87
2019-09-26 15:00:00 24.8 16 Sur 31 Norte 0 1016.2 -1.1 81
2019-09-26 14:00:00 26 16 Noroeste 44 Noroeste 0 1016.7 -0.8 72
2019-09-26 13:00:00 26.6 14 Noroeste 45 Noroeste 0 1017.1 0 70
2019-09-26 12:00:00 26.4 14 Noroeste 37 Norte 0 1017.3 1.1 71
2019-09-26 11:00:00 25.5 13 Noroeste 38 Oeste 0 1017.5 1.4 71
2019-09-26 10:00:00 24.9 14 Noroeste 44 Norte 0 1017.1 1.9 74
2019-09-26 09:00:00 24 14 Noroeste 39 Noroeste 0 1016.2 1.6 80
2019-09-26 08:00:00 22.9 16 Noroeste 45 Oeste 0 1016.1 1.6 90
2019-09-26 07:00:00 23.4 13 Noroeste 39 Noroeste 0 1015.2 0.5 87
2019-09-26 06:00:00 23.8 16 Noroeste 39 Oeste 0 1014.6 -0.5 80
2019-09-26 05:00:00 23.8 15 Noroeste 40 Oeste 0 1014.5 -1 77
2019-09-26 04:00:00 23.5 17 Noroeste 37 Oeste 0 1014.7 -1.3 78
2019-09-26 03:00:00 23.6 15 Noroeste 40 Noroeste 0 1015.1 -1.3 77
2019-09-26 02:00:00 23.5 14 Noroeste 32 Noroeste 0 1015.5 -0.5 77
2019-09-26 01:00:00 23.6 13 Noroeste 31 Oeste 0 1016 0.4 77
2019-09-26 00:00:00 23.7 12 Noroeste 29 Noroeste 0 1016.4 1.3 76
2019-09-25 23:00:00 23.7 13 Noroeste 34 Noroeste 0 1016 1.3 76
2019-09-25 22:00:00 23.7 14 Noroeste 35 Noroeste 0 1015.6 0.5 77
2019-09-25 21:00:00 23.9 18 Noroeste 37 Noroeste 0 1015.1 0.7 75
2019-09-25 20:00:00 23.9 17 Noroeste 42 Oeste 0 1014.7 -0.4 77
2019-09-25 19:00:00 24.9 17 Noroeste 37 Noroeste 0 1015.1 -0.1 75
2019-09-25 18:00:00 25 19 Noroeste 59 Noroeste 0 1014.4 -1.3 75
2019-09-25 17:00:00 25.6 18 Noroeste 44 Noroeste 0 1015.1 -1.3 70
2019-09-25 16:00:00 25.7 17 Noroeste 51 Noroeste 0 1015.2 -2 72
2019-09-25 15:00:00 24.6 22 Norte 46 Norte 0 1015.7 -1.8 73
2019-09-25 14:00:00 26 15 Noroeste 41 Noroeste 0 1016.4 -1.1 70
2019-09-25 13:00:00 25.4 21 Noroeste 47 Oeste 0 1017.2 -0.2 73
2019-09-25 12:00:00 25.4 14 Noroeste 50 Noroeste 0 1017.5 0.7 69
2019-09-25 11:00:00 24.6 15 Noroeste 41 Norte 0 1017.5 1 71
2019-09-25 10:00:00 23.8 20 Noroeste 54 Norte 0 1017.4 1.2 73
2019-09-25 09:00:00 23.2 21 Noroeste 45 Noroeste 0 1016.8 0.5 79
2019-09-25 08:00:00 22.7 18 Norte 43 Norte 0 1016.5 0 78
2019-09-25 07:00:00 22.6 16 Norte 40 Norte 0 1016.2 -0.3 80
2019-09-25 06:00:00 22.8 19 Norte 42 Norte 0 1016.3 -0.3 80
2019-09-25 05:00:00 22.8 19 Norte 37 Norte 0 1016.5 -0.8 79
2019-09-25 04:00:00 22.8 17 Norte 44 Nordeste 0 1016.5 -1.2 77
2019-09-25 03:00:00 22.7 15 Noroeste 36 Noroeste 0 1016.6 -1 77
2019-09-25 02:00:00 22.8 14 Noroeste 40 Noroeste 0 1017.3 -0.6 77
2019-09-25 01:00:00 22.8 13 Noroeste 37 Norte 0 1017.7 0 77
2019-09-25 00:00:00 22.9 18 Norte 42 Norte 0 1017.6 0.5 80
2019-09-24 23:00:00 22.9 19 Norte 42 Norte 0 1017.9 0.5 80
2019-09-24 22:00:00 23.1 15 Noroeste 32 Norte 0 1017.7 0.6 79
2019-09-24 21:00:00 23.3 17 Norte 35 Noroeste 0 1017.1 0.1 81
2019-09-24 20:00:00 23.4 13 Norte 32 Noroeste 0 1017.4 0.4 79
2019-09-24 19:00:00 24.4 16 Noroeste 42 Noroeste 0 1017.1 0 75
2019-09-24 18:00:00 24.6 17 Noroeste 50 Oeste 0 1017 -0.8 73
2019-09-24 17:00:00 25 20 Noroeste 46 Oeste 0 1017 -1.5 72
2019-09-24 16:00:00 25.5 18 Noroeste 43 Noroeste 0 1017.1 -1.7 72
2019-09-24 15:00:00 26.1 14 Noroeste 44 Noroeste 0 1017.8 -1.6 72
2019-09-24 14:00:00 26.6 13 Noroeste 40 Oeste 0 1018.5 -0.9 72
2019-09-24 13:00:00 25.3 17 Norte 42 Nordeste 0 1018.8 -0.1 71
2019-09-24 12:00:00 25.3 19 Noroeste 41 Noroeste 0 1019.4 1.3 72
2019-09-24 11:00:00 24.5 15 Noroeste 46 Noroeste 0 1019.4 1.6 73
2019-09-24 10:00:00 24 13 Noroeste 38 Noroeste 0 1018.9 1.4 77
2019-09-24 09:00:00 23.7 14 Norte 32 Norte 0 1018.1 1.1 72
2019-09-24 08:00:00 22.8 11 Norte 31 Noroeste 0 1017.8 1.1 82
2019-09-24 07:00:00 22.7 12 Noroeste 40 Nordeste 0 1017.5 0.6 80
2019-09-24 06:00:00 22.5 16 Norte 32 Oeste 0 1017 -0.4 82
2019-09-24 05:00:00 22.6 12 Noroeste 33 Noroeste 0 1016.7 -1.2 82
2019-09-24 04:00:00 22.6 13 Noroeste 39 Norte 0 1016.9 -1.3 81
2019-09-24 03:00:00 22.5 13 Noroeste 30 Noroeste 0 1017.4 -1.1 80
2019-09-24 02:00:00 22.8 12 Noroeste 28 Oeste 0 1017.9 -0.6 76
2019-09-24 01:00:00 23.1 12 Noroeste 24 Noroeste 0 1018.2 -0.1 75
2019-09-24 00:00:00 23.1 12 Noroeste 30 Noroeste 0 1018.5 0.9 77
2019-09-23 23:00:00 23.2 14 Noroeste 32 Oeste 0 1018.5 1.3 77
2019-09-23 22:00:00 23.3 10 Noroeste 30 Noroeste 0 1018.3 0.9 76
2019-09-23 21:00:00 23.6 14 Noroeste 38 Noroeste 0 1017.6 0.2 74
2019-09-23 20:00:00 23.7 14 Noroeste 37 Noroeste 0 1017.2 -0.4 77
2019-09-23 19:00:00 24.5 16 Noroeste 42 Oeste 0 1017.4 -0.1 75
2019-09-23 18:00:00 24.7 17 Noroeste 39 Norte 0 1017.4 -0.3 75
2019-09-23 17:00:00 24.7 18 Noroeste 42 Norte 0 1017.6 -0.4 75
2019-09-23 16:00:00 25.1 18 Noroeste 38 Noroeste 0 1017.5 -0.9 72
2019-09-23 15:00:00 24.9 13 Noroeste 40 Norte 0 1017.7 -0.6 76
2019-09-23 14:00:00 25.9 14 Norte 37 Norte 0 1018 0.1 74
2019-09-23 13:00:00 25.8 18 Norte 45 Norte 0 1018.4 0.9 72
2019-09-23 12:00:00 26.3 12 Norte 38 Oeste 0 1018.3 1.2 66
2019-09-23 11:00:00 24.6 15 Norte 37 Noroeste 0 1017.9 1.2 71
2019-09-23 10:00:00 24.4 13 Noroeste 30 Noroeste 0 1017.5 1.2 77
2019-09-23 09:00:00 23.6 12 Noroeste 29 Noroeste 0 1017.1 0.9 81
2019-09-23 08:00:00 23 15 Norte 36 Noroeste 0 1016.7 0.7 85
2019-09-23 07:00:00 23.2 18 Norte 35 Norte 0 1016.3 0.3 87
2019-09-23 06:00:00 23.4 16 Norte 36 Norte 0 1016.2 0.1 86
2019-09-23 05:00:00 23.6 12 Norte 33 Norte 0 1016 -0.7 83
2019-09-23 04:00:00 23.7 13 Norte 36 Norte 0 1016 -0.7 80
2019-09-23 03:00:00 23.7 15 Norte 37 Norte 0 1016.1 -1.1 79
2019-09-23 02:00:00 23.7 17 Norte 39 Norte 0 1016.7 -0.7 86
2019-09-23 01:00:00 24 17 Norte 37 Norte 0 1016.7 -0.1 89
2019-09-23 00:00:00 24.1 13 Norte 33 Noroeste 0 1017.2 1 90
2019-09-22 23:00:00 23.9 11 Norte 31 Oeste 0 1017.4 1.8 92
2019-09-22 22:00:00 24.2 15 Norte 37 Nordeste 0 1016.8 1.3 92
2019-09-22 21:00:00 24.4 13 Noroeste 29 Noroeste 0 1016.2 1 92
2019-09-22 20:00:00 25.1 9 Norte 27 Norte 0 1015.6 0.4 90
2019-09-22 19:00:00 25.8 3 Norte 20 Nordeste 0 1015.5 0.1 86
2019-09-22 18:00:00 24.5 13 Sur 23 Sur 0 1015.2 -0.6 90
2019-09-22 17:00:00 24.6 15 Sur 21 Sur 0 1015.2 -0.6 90
2019-09-22 16:00:00 24.4 17 Sur 24 Sur 0 1015.4 -0.9 89
2019-09-22 15:00:00 24.2 17 Sur 28 Sur 0 1015.8 -0.7 90
2019-09-22 14:00:00 24.2 21 Sur 28 Sur 0 1015.8 -1 92
2019-09-22 13:00:00 24.4 16 Sur 26 Sur 0 1016.3 -0.1 87
2019-09-22 12:00:00 26.2 5 Este 28 Norte 0 1016.5 0.4 81
2019-09-22 11:00:00 26 10 Norte 23 Noroeste 0 1016.8 1 74
2019-09-22 10:00:00 23.6 13 Sur 19 Sur 0 1016.4 0.7 88
2019-09-22 09:00:00 23.8 3 Sudeste 10 Sudeste 0 1016.1 0.9 88
2019-09-22 08:00:00 22.5 0 Calma 6 Norte 0 1015.8 1.1 86
2019-09-22 07:00:00 22.3 0 Calma 5 Sudoeste 0 1015.7 1.1 84
2019-09-22 06:00:00 23.2 2 Norte 14 Nordeste 0 1015.2 0.1 83
2019-09-22 05:00:00 23.6 3 Norte 21 Norte 0 1014.7 -0.7 77
2019-09-22 04:00:00 23.4 6 Norte 17 Norte 0 1014.6 -1.1 82
2019-09-22 03:00:00 23.9 8 Norte 21 Nordeste 0 1015.1 -0.6 77
2019-09-22 02:00:00 23.8 4 Norte 16 Norte 0 1015.4 -0.2 81
2019-09-22 01:00:00 24.1 5 Norte 23 Noroeste 0 1015.7 0.5 79
2019-09-22 00:00:00 24.1 8 Noroeste 24 Nordeste 0 1015.7 1.1 80